Time;durP1;ratioP1;P1;durP2;ratioP2;P2;SDS_P1;SDS_P2;PMS_P1;PMS_P2;Temp;Humidity;BMP_temperature;BMP_pressure;BME280_temperature;BME280_humidity;BME280_pressure;Samples;Min_cycle;Max_cycle;Signal;HPM_P1;HPM_P2
2024/04/10 00:00:12;;;;;;;;;;;;;;;9.84;65.16;98496.06;5504612;25;20639;-86
2024/04/10 00:03:05;;;;;;;;;;;;;;;9.88;64.54;98497.13;5501144;26;19958;-85
2024/04/10 00:05:59;;;;;;;;;;;;;;;9.90;64.17;98505.75;5483353;26;19928;-87
2024/04/10 00:08:49;;;;;;;;;;;;;;;9.80;64.90;98504.00;5488872;26;19972;-86
2024/04/10 00:11:39;;;;;;;;;;;;;;;9.81;64.89;98494.75;5487714;25;19933;-76
2024/04/10 00:14:30;;;;;;;;;;;;;;;9.85;64.53;98495.78;5480965;26;19935;-75
2024/04/10 00:17:20;;;;;;;;;;;;;;;9.81;64.76;98492.06;5484421;26;19928;-75
2024/04/10 00:20:10;;;;;;;;;;;;;;;9.78;64.64;98502.66;5485822;26;20352;-75
2024/04/10 00:23:01;;;;;;;;;;;;;;;9.94;63.92;98512.22;5488046;26;19928;-75
2024/04/10 00:25:52;;;;;;;;;;;;;;;10.02;63.55;98513.50;5503670;25;19935;-75
2024/04/10 00:28:42;;;;;;;;;;;;;;;9.91;63.30;98502.78;5480502;25;19927;-75
2024/04/10 00:31:29;;;;;;;;;;;;;;;9.97;63.51;98512.47;5472760;26;20375;-75
2024/04/10 00:34:19;;;;;;;;;;;;;;;9.94;62.89;98509.50;5480101;26;19927;-76
2024/04/10 00:37:10;;;;;;;;;;;;;;;9.87;63.69;98512.59;5504988;26;19970;-75
2024/04/10 00:40:03;;;;;;;;;;;;;;;9.69;64.03;98505.22;5475316;26;19946;-75
2024/04/10 00:42:50;;;;;;;;;;;;;;;9.77;64.40;98507.28;5487141;26;19927;-75
2024/04/10 00:45:40;;;;;;;;;;;;;;;9.77;62.75;98501.88;5482889;26;19935;-75
2024/04/10 00:48:28;;;;;;;;;;;;;;;9.66;63.77;98500.38;5513127;25;19935;-75
2024/04/10 00:51:18;;;;;;;;;;;;;;;9.54;64.69;98503.53;5487931;26;19999;-75
2024/04/10 00:54:10;;;;;;;;;;;;;;;9.65;64.80;98496.88;5474242;26;19928;-75
2024/04/10 00:57:00;;;;;;;;;;;;;;;9.76;63.64;98507.59;5462483;26;19928;-75
2024/04/10 00:59:47;;;;;;;;;;;;;;;9.81;63.10;98515.66;5486873;26;19934;-87
2024/04/10 01:02:38;;;;;;;;;;;;;;;9.96;63.23;98510.84;5497272;26;19939;-85
2024/04/10 01:05:25;;;;;;;;;;;;;;;9.80;62.99;98512.16;5493766;26;19928;-84
2024/04/10 01:08:15;;;;;;;;;;;;;;;9.84;63.05;98526.72;5515551;25;20284;-85
2024/04/10 01:11:06;;;;;;;;;;;;;;;9.87;62.34;98525.34;5486169;26;19935;-82
2024/04/10 01:13:56;;;;;;;;;;;;;;;9.75;63.06;98520.34;5509488;25;19995;-86
2024/04/10 01:16:44;;;;;;;;;;;;;;;9.61;63.65;98519.44;5487977;26;19939;-86
2024/04/10 01:19:35;;;;;;;;;;;;;;;9.87;63.02;98525.34;5513985;26;19928;-85
2024/04/10 01:22:23;;;;;;;;;;;;;;;9.78;62.96;98518.94;5464855;26;19939;-85
2024/04/10 01:25:16;;;;;;;;;;;;;;;9.79;62.77;98512.41;5509413;26;19938;-86
2024/04/10 01:28:04;;;;;;;;;;;;;;;9.73;62.30;98519.00;5477426;26;20386;-85
2024/04/10 01:30:54;;;;;;;;;;;;;;;9.80;63.45;98520.28;5490923;26;19931;-76
2024/04/10 01:33:42;;;;;;;;;;;;;;;9.72;63.01;98531.78;5491943;26;19935;-76
2024/04/10 01:36:32;;;;;;;;;;;;;;;9.82;62.87;98530.84;5485747;26;19936;-76
2024/04/10 01:39:20;;;;;;;;;;;;;;;9.75;63.64;98533.94;5514631;26;19940;-76
2024/04/10 01:42:14;;;;;;;;;;;;;;;9.89;62.32;98534.00;5484112;26;19977;-77
2024/04/10 01:45:02;;;;;;;;;;;;;;;9.85;62.94;98533.75;5494224;26;19928;-76
2024/04/10 01:47:52;;;;;;;;;;;;;;;9.91;62.81;98535.34;5482823;26;19927;-75
2024/04/10 01:50:42;;;;;;;;;;;;;;;9.93;61.35;98538.56;5489269;26;20254;-76
2024/04/10 01:53:32;;;;;;;;;;;;;;;9.89;62.05;98531.28;5485658;26;19997;-76
2024/04/10 01:56:20;;;;;;;;;;;;;;;9.79;62.53;98531.41;5476927;26;20359;-76
2024/04/10 01:59:12;;;;;;;;;;;;;;;9.80;62.41;98536.56;5469893;26;19928;-76
2024/04/10 02:02:01;;;;;;;;;;;;;;;9.75;62.76;98549.38;5508554;26;19949;-76
2024/04/10 02:04:51;;;;;;;;;;;;;;;9.77;62.78;98556.13;5484788;25;20602;-76
2024/04/10 02:07:39;;;;;;;;;;;;;;;9.79;62.59;98553.13;5494144;26;19943;-76
2024/04/10 02:10:29;;;;;;;;;;;;;;;9.79;62.51;98543.06;5505148;26;19927;-76
2024/04/10 02:13:16;;;;;;;;;;;;;;;9.69;62.63;98545.91;5493429;26;20000;-76
2024/04/10 02:16:09;;;;;;;;;;;;;;;9.63;63.25;98549.78;5516582;26;19931;-76
2024/04/10 02:18:57;;;;;;;;;;;;;;;9.74;62.67;98556.69;5496314;26;19927;-77
2024/04/10 02:21:49;;;;;;;;;;;;;;;9.81;62.82;98572.66;5494719;26;20359;-84
2024/04/10 02:24:36;;;;;;;;;;;;;;;9.67;62.82;98572.53;5495127;26;19976;-84
2024/04/10 02:27:26;;;;;;;;;;;;;;;9.77;62.87;98560.75;5470260;26;22239;-85
2024/04/10 02:30:14;;;;;;;;;;;;;;;9.82;62.32;98568.84;5486563;26;19935;-85
2024/04/10 02:33:06;;;;;;;;;;;;;;;9.75;62.50;98569.19;5515497;25;19931;-74
2024/04/10 02:35:54;;;;;;;;;;;;;;;9.65;62.45;98575.53;5493766;26;19934;-78
2024/04/10 02:38:44;;;;;;;;;;;;;;;9.62;62.55;98576.13;5500724;26;20364;-77
2024/04/10 02:41:31;;;;;;;;;;;;;;;9.65;62.98;98574.75;5486711;25;20010;-78
2024/04/10 02:44:21;;;;;;;;;;;;;;;9.70;62.98;98589.06;5489649;25;19927;-77
2024/04/10 02:47:10;;;;;;;;;;;;;;;9.67;62.64;98588.81;5485069;26;20368;-78
2024/04/10 02:50:04;;;;;;;;;;;;;;;9.65;62.67;98593.72;5479800;26;19927;-74
2024/04/10 02:52:51;;;;;;;;;;;;;;;9.67;62.52;98599.66;5479124;26;19955;-74
2024/04/10 02:55:43;;;;;;;;;;;;;;;9.67;62.78;98611.31;5480166;26;19928;-74
2024/04/10 02:58:31;;;;;;;;;;;;;;;9.56;62.80;98603.59;5507640;25;19935;-74
2024/04/10 03:01:21;;;;;;;;;;;;;;;9.52;63.06;98608.78;5490978;26;19931;-73
2024/04/10 03:04:08;;;;;;;;;;;;;;;9.63;63.30;98612.19;5484598;26;19959;-74
2024/04/10 03:07:03;;;;;;;;;;;;;;;9.63;63.08;98612.19;5490099;26;20282;-74
2024/04/10 03:09:50;;;;;;;;;;;;;;;9.56;63.08;98619.88;5483419;26;20178;-74
2024/04/10 03:12:40;;;;;;;;;;;;;;;9.62;63.18;98629.56;5480701;25;19935;-74
2024/04/10 03:15:28;;;;;;;;;;;;;;;9.58;63.26;98644.78;5499607;25;19939;-74
2024/04/10 03:18:18;;;;;;;;;;;;;;;9.64;62.94;98647.19;5489669;25;19955;-73
2024/04/10 03:21:06;;;;;;;;;;;;;;;9.67;62.54;98645.78;5475983;26;19935;-73
2024/04/10 03:23:59;;;;;;;;;;;;;;;9.34;63.35;98648.28;5491411;26;19934;-73
2024/04/10 03:26:46;;;;;;;;;;;;;;;9.48;63.59;98634.88;5490659;25;20367;-73
2024/04/10 03:29:36;;;;;;;;;;;;;;;9.49;63.11;98641.09;5477649;26;19939;-75
2024/04/10 03:32:24;;;;;;;;;;;;;;;9.45;63.26;98652.50;5480930;26;19967;-76
2024/04/10 03:35:14;;;;;;;;;;;;;;;9.43;63.24;98651.19;5487319;26;19927;-75
2024/04/10 03:38:02;;;;;;;;;;;;;;;9.47;63.04;98654.94;5483940;26;19931;-80
2024/04/10 03:40:55;;;;;;;;;;;;;;;9.51;62.98;98650.56;5495002;26;19927;-78
2024/04/10 03:43:44;;;;;;;;;;;;;;;9.40;63.77;98649.84;5496910;26;19935;-80
2024/04/10 03:46:36;;;;;;;;;;;;;;;9.43;63.50;98652.00;5482181;26;19935;-79
2024/04/10 03:49:26;;;;;;;;;;;;;;;9.50;63.43;98653.56;5466861;26;19927;-81
2024/04/10 03:52:16;;;;;;;;;;;;;;;9.54;62.81;98660.03;5481505;26;20423;-79
2024/04/10 03:55:04;;;;;;;;;;;;;;;9.48;63.34;98658.44;5507001;25;19933;-78
2024/04/10 03:57:57;;;;;;;;;;;;;;;9.45;63.51;98657.13;5500967;26;19935;-78
2024/04/10 04:00:47;;;;;;;;;;;;;;;9.45;63.40;98663.34;5495215;26;19934;-80
2024/04/10 04:03:38;;;;;;;;;;;;;;;9.47;63.37;98673.09;5473455;26;19932;-80
2024/04/10 04:06:25;;;;;;;;;;;;;;;9.52;63.21;98675.78;5481412;26;19927;-79
2024/04/10 04:09:16;;;;;;;;;;;;;;;9.55;63.35;98680.66;5480450;26;19940;-80
2024/04/10 04:12:04;;;;;;;;;;;;;;;9.47;63.38;98692.91;5515075;26;19932;-83
2024/04/10 04:14:57;;;;;;;;;;;;;;;9.55;63.60;98689.59;5514081;26;19927;-87
2024/04/10 04:17:45;;;;;;;;;;;;;;;9.69;62.28;98698.69;5500043;25;19942;-80
2024/04/10 04:20:35;;;;;;;;;;;;;;;9.66;62.41;98703.88;5524257;25;19997;-82
2024/04/10 04:23:23;;;;;;;;;;;;;;;9.69;62.55;98703.28;5499645;26;19955;-85
2024/04/10 04:26:13;;;;;;;;;;;;;;;9.75;62.20;98720.31;5492756;26;19935;-86
2024/04/10 04:29:03;;;;;;;;;;;;;;;9.75;61.88;98714.88;5504936;26;19931;-85
2024/04/10 04:31:57;;;;;;;;;;;;;;;9.77;61.92;98716.25;5501541;26;19934;-86
2024/04/10 04:34:48;;;;;;;;;;;;;;;9.77;61.71;98721.66;5532969;26;19964;-84
2024/04/10 04:37:35;;;;;;;;;;;;;;;9.80;61.65;98728.41;5492616;26;19926;-83
2024/04/10 04:40:25;;;;;;;;;;;;;;;9.74;62.06;98729.56;5525635;25;19934;-75
2024/04/10 04:43:12;;;;;;;;;;;;;;;9.85;61.25;98737.31;5477182;26;19935;-76
2024/04/10 04:46:04;;;;;;;;;;;;;;;9.81;61.95;98730.84;5497079;26;19935;-76
2024/04/10 04:48:54;;;;;;;;;;;;;;;9.85;61.71;98726.47;5505585;25;19935;-76
2024/04/10 04:51:45;;;;;;;;;;;;;;;9.86;61.42;98725.38;5486914;26;19935;-85
2024/04/10 04:57:34;;;;;;;;;;;;;;;9.86;60.95;98738.97;5299427;26;20000;-69
2024/04/10 05:00:22;;;;;;;;;;;;;;;9.78;60.89;98753.13;5276552;26;19931;-68
2024/04/10 05:04:54;;;;;;;;;;;;;;;9.74;61.32;98762.13;5274585;26;19938;-69
2024/04/10 05:06:23;;;;;;;;;;;;;;;9.82;61.45;98770.47;5321947;26;19938;-69
2024/04/10 05:09:13;;;;;;;;;;;;;;;9.81;61.26;98779.72;5309592;26;19946;-70
2024/04/10 05:12:03;;;;;;;;;;;;;;;9.89;60.98;98789.94;5288063;26;19943;-68
2024/04/10 05:14:50;;;;;;;;;;;;;;;9.93;60.95;98787.47;5306625;26;20387;-68
2024/04/10 05:17:40;;;;;;;;;;;;;;;9.83;61.29;98799.22;5291579;26;19959;-70
2024/04/10 05:20:28;;;;;;;;;;;;;;;9.90;61.39;98798.88;5284718;26;19942;-69
2024/04/10 05:23:23;;;;;;;;;;;;;;;9.91;61.14;98800.53;5287791;26;19930;-69
2024/04/10 05:26:10;;;;;;;;;;;;;;;9.88;61.43;98806.50;5274733;26;19931;-69
2024/04/10 05:29:00;;;;;;;;;;;;;;;9.99;61.43;98810.75;5292893;26;19938;-69
2024/04/10 05:31:48;;;;;;;;;;;;;;;10.03;61.04;98817.25;5295304;26;19930;-66
2024/04/10 05:34:38;;;;;;;;;;;;;;;9.94;61.24;98821.66;5301841;26;19931;-69
2024/04/10 05:37:30;;;;;;;;;;;;;;;10.01;60.95;98826.75;5280079;26;20238;-68
2024/04/10 05:40:20;;;;;;;;;;;;;;;9.98;61.02;98828.16;5307976;26;19931;-69
2024/04/10 05:43:10;;;;;;;;;;;;;;;10.01;60.89;98832.19;5301150;26;20352;-69
2024/04/10 05:45:59;;;;;;;;;;;;;;;10.07;60.88;98847.34;5278909;26;20355;-68
2024/04/10 05:48:49;;;;;;;;;;;;;;;10.06;60.60;98856.56;5299682;26;20010;-67
2024/04/10 05:51:36;;;;;;;;;;;;;;;10.18;59.90;98859.75;5277187;26;20576;-69
2024/04/10 05:54:26;;;;;;;;;;;;;;;10.13;60.21;98857.06;5298690;26;19943;-69
2024/04/10 05:57:16;;;;;;;;;;;;;;;10.13;60.12;98857.06;5286402;26;20037;-67
2024/04/10 06:00:09;;;;;;;;;;;;;;;10.25;59.54;98864.88;5302223;26;20001;-68
2024/04/10 06:02:59;;;;;;;;;;;;;;;10.15;60.19;98876.59;5304333;26;20332;-69
2024/04/10 06:05:49;;;;;;;;;;;;;;;10.12;60.23;98877.16;5292962;26;20782;-69
2024/04/10 06:08:36;;;;;;;;;;;;;;;10.22;60.48;98877.88;5301304;26;19938;-70
2024/04/10 06:11:27;;;;;;;;;;;;;;;10.06;60.42;98884.53;5289078;26;20501;-69
2024/04/10 06:14:17;;;;;;;;;;;;;;;10.05;60.99;98882.91;5324054;26;20639;-69
2024/04/10 06:17:07;;;;;;;;;;;;;;;10.12;60.63;98893.44;5297047;26;19931;-69
2024/04/10 06:19:55;;;;;;;;;;;;;;;10.25;60.46;98892.84;5284636;26;20002;-67
2024/04/10 06:22:44;;;;;;;;;;;;;;;10.21;60.09;98902.59;5285291;26;19955;-69
2024/04/10 06:25:32;;;;;;;;;;;;;;;10.12;60.71;98910.56;5286241;26;19998;-69
2024/04/10 06:28:21;;;;;;;;;;;;;;;10.17;60.15;98915.97;5287458;26;19939;-69
2024/04/10 06:31:12;;;;;;;;;;;;;;;10.14;60.57;98918.44;5274227;26;19938;-67
2024/04/10 06:34:02;;;;;;;;;;;;;;;10.06;60.77;98921.72;5296519;26;20373;-65
2024/04/10 06:36:50;;;;;;;;;;;;;;;10.09;60.59;98926.59;5292570;26;20579;-69
2024/04/10 06:39:40;;;;;;;;;;;;;;;10.16;60.47;98932.50;5294927;26;19931;-69
2024/04/10 06:42:27;;;;;;;;;;;;;;;10.12;60.26;98931.47;5297725;26;20262;-68
2024/04/10 06:45:16;;;;;;;;;;;;;;;10.16;60.26;98932.50;5282908;26;19938;-69
2024/04/10 06:48:07;;;;;;;;;;;;;;;10.07;60.62;98936.94;5286098;26;20384;-68
2024/04/10 06:50:57;;;;;;;;;;;;;;;9.85;61.53;98946.28;5277507;26;19931;-68
2024/04/10 06:53:44;;;;;;;;;;;;;;;9.90;61.01;98938.13;5275590;26;20060;-69
2024/04/10 06:56:34;;;;;;;;;;;;;;;10.01;60.53;98946.19;5302263;26;20281;-69
2024/04/10 06:59:24;;;;;;;;;;;;;;;10.05;60.21;98942.66;5286928;26;19935;-68
2024/04/10 07:02:14;;;;;;;;;;;;;;;10.10;60.56;98944.50;5280736;26;19938;-68
2024/04/10 07:05:07;;;;;;;;;;;;;;;10.17;60.26;98937.69;5296224;26;20000;-68
2024/04/10 07:07:54;;;;;;;;;;;;;;;10.23;60.06;98943.88;5284538;26;20004;-69
2024/04/10 07:10:44;;;;;;;;;;;;;;;10.06;60.99;98949.69;5281649;26;20002;-69
2024/04/10 07:13:31;;;;;;;;;;;;;;;10.28;59.57;98954.75;5289711;26;20004;-69
2024/04/10 07:16:26;;;;;;;;;;;;;;;10.32;58.95;98953.06;5286727;27;20683;-67
2024/04/10 07:19:16;;;;;;;;;;;;;;;10.41;59.05;98953.28;5273719;26;19949;-67
2024/04/10 07:22:09;;;;;;;;;;;;;;;10.44;59.01;98953.53;5276693;26;20398;-69
2024/04/10 07:24:58;;;;;;;;;;;;;;;10.58;58.69;98966.44;5282934;26;19935;-68
2024/04/10 07:27:46;;;;;;;;;;;;;;;10.54;57.75;98955.31;5283103;26;20612;-68
2024/04/10 07:30:35;;;;;;;;;;;;;;;10.39;58.63;98956.28;5296172;26;20299;-68
2024/04/10 07:33:23;;;;;;;;;;;;;;;10.46;58.29;98956.75;5285515;26;19930;-68
2024/04/10 07:36:21;;;;;;;;;;;;;;;10.34;58.79;98966.38;5282031;26;19940;-69
2024/04/10 07:39:14;;;;;;;;;;;;;;;10.47;58.32;98963.81;5305022;26;19982;-70
2024/04/10 07:42:02;;;;;;;;;;;;;;;10.38;58.22;98968.22;5296053;26;20281;-69
2024/04/10 07:44:53;;;;;;;;;;;;;;;10.34;58.85;98977.25;5293083;26;20269;-68
2024/04/10 07:47:41;;;;;;;;;;;;;;;10.33;58.91;98978.31;5288962;26;19947;-68
2024/04/10 07:50:32;;;;;;;;;;;;;;;10.39;58.60;98975.28;5286498;26;20155;-68
2024/04/10 07:53:19;;;;;;;;;;;;;;;10.25;58.75;98984.38;5283184;26;19935;-68
2024/04/10 07:56:12;;;;;;;;;;;;;;;10.35;58.40;98993.25;5307243;26;19930;-68
2024/04/10 07:59:00;;;;;;;;;;;;;;;10.33;58.60;98991.91;5276535;26;19943;-66
2024/04/10 08:01:51;;;;;;;;;;;;;;;10.28;59.10;98995.47;5303307;26;20392;-67
2024/04/10 08:04:38;;;;;;;;;;;;;;;10.11;59.71;98995.00;5302289;26;20375;-69
2024/04/10 08:07:28;;;;;;;;;;;;;;;10.20;59.17;98996.84;5277378;26;19931;-69
2024/04/10 08:10:15;;;;;;;;;;;;;;;10.28;58.75;99003.63;5299135;26;19931;-69
2024/04/10 08:13:08;;;;;;;;;;;;;;;10.39;58.55;99007.91;5274571;27;19931;-68
2024/04/10 08:15:55;;;;;;;;;;;;;;;10.42;58.11;99011.94;5302265;26;19942;-68
2024/04/10 08:18:45;;;;;;;;;;;;;;;10.51;58.12;99017.59;5279828;26;20563;-68
2024/04/10 08:21:36;;;;;;;;;;;;;;;10.53;58.23;99012.66;5288480;26;19930;-67
2024/04/10 08:24:26;;;;;;;;;;;;;;;10.57;57.89;99035.47;5293818;26;20369;-68
2024/04/10 08:27:13;;;;;;;;;;;;;;;10.64;57.95;99035.94;5277506;26;19942;-68
2024/04/10 08:30:06;;;;;;;;;;;;;;;10.65;57.97;99027.53;5276724;26;19939;-68
2024/04/10 08:32:53;;;;;;;;;;;;;;;10.78;57.37;99042.34;5278187;26;20381;-68
2024/04/10 08:35:44;;;;;;;;;;;;;;;10.73;57.48;99045.94;5282977;26;20005;-68
2024/04/10 08:38:31;;;;;;;;;;;;;;;10.95;57.59;99059.06;5310190;26;19938;-67
2024/04/10 08:41:22;;;;;;;;;;;;;;;10.95;56.72;99050.09;5283205;26;19998;-68
2024/04/10 08:44:11;;;;;;;;;;;;;;;11.02;56.97;99054.13;5301551;26;20369;-68
2024/04/10 08:47:03;;;;;;;;;;;;;;;11.06;55.92;99058.97;5305263;26;19937;-69
2024/04/10 08:49:51;;;;;;;;;;;;;;;11.28;55.49;99065.53;5275967;26;19931;-68
2024/04/10 08:52:43;;;;;;;;;;;;;;;11.37;54.73;99078.53;5274983;26;20452;-68
2024/04/10 08:55:30;;;;;;;;;;;;;;;11.36;55.49;99085.88;5293843;26;19931;-69
2024/04/10 08:58:20;;;;;;;;;;;;;;;11.34;54.79;99088.06;5276093;26;19942;-69
2024/04/10 09:01:08;;;;;;;;;;;;;;;11.39;54.66;99096.19;5292005;26;19940;-67
2024/04/10 09:04:00;;;;;;;;;;;;;;;11.81;54.25;99094.63;5303518;26;19942;-68
2024/04/10 09:06:49;;;;;;;;;;;;;;;12.27;52.28;99096.81;5286525;26;19938;-65
2024/04/10 09:09:38;;;;;;;;;;;;;;;12.47;52.54;99085.66;5277193;26;19937;-68
2024/04/10 09:12:26;;;;;;;;;;;;;;;12.18;52.62;99095.84;5282279;26;19931;-69
2024/04/10 09:15:19;;;;;;;;;;;;;;;12.10;52.08;99104.69;5275337;26;19931;-67
2024/04/10 09:18:06;;;;;;;;;;;;;;;12.27;52.31;99103.09;5288628;26;19931;-68
2024/04/10 09:21:12;;;;;;;;;;;;;;;12.30;51.94;99093.50;5276698;26;19931;-68
2024/04/10 09:23:59;;;;;;;;;;;;;;;12.37;51.67;99091.25;5292022;26;20361;-69
2024/04/10 09:26:51;;;;;;;;;;;;;;;12.09;52.92;99103.03;5285105;26;20527;-68
2024/04/10 09:29:38;;;;;;;;;;;;;;;11.49;54.46;99108.88;5288815;26;19974;-69
2024/04/10 09:32:28;;;;;;;;;;;;;;;11.61;53.85;99103.03;5277149;26;19942;-65
2024/04/10 09:35:16;;;;;;;;;;;;;;;11.77;53.94;99091.72;5283237;26;19931;-68
2024/04/10 09:38:08;;;;;;;;;;;;;;;12.21;51.97;99098.00;5276079;26;19942;-69
2024/04/10 09:40:57;;;;;;;;;;;;;;;12.33;51.53;99101.09;5292302;26;19931;-64
2024/04/10 09:43:46;;;;;;;;;;;;;;;12.33;51.69;99106.53;5282391;26;19931;-69
2024/04/10 09:46:34;;;;;;;;;;;;;;;12.22;52.59;99108.59;5282666;26;20308;-68
2024/04/10 09:49:24;;;;;;;;;;;;;;;12.09;52.30;99103.88;5296889;26;19937;-68
2024/04/10 09:52:11;;;;;;;;;;;;;;;12.05;53.01;99109.09;5280420;26;19938;-69
2024/04/10 09:55:03;;;;;;;;;;;;;;;12.17;52.60;99116.03;5286442;26;20270;-69
2024/04/10 09:57:50;;;;;;;;;;;;;;;12.22;51.20;99118.69;5285218;26;19931;-68
2024/04/10 10:00:40;;;;;;;;;;;;;;;12.20;52.52;99116.25;5292476;26;21181;-67
2024/04/10 10:03:27;;;;;;;;;;;;;;;12.31;51.93;99106.84;5297668;26;19931;-68
2024/04/10 10:06:17;;;;;;;;;;;;;;;12.25;51.41;99118.94;5295851;26;20719;-67
2024/04/10 10:09:06;;;;;;;;;;;;;;;12.11;52.62;99123.47;5275692;26;19942;-68
2024/04/10 10:12:02;;;;;;;;;;;;;;;11.89;52.12;99125.91;5273539;26;20265;-68
2024/04/10 10:14:49;;;;;;;;;;;;;;;12.01;52.56;99127.09;5276173;26;19931;-68
2024/04/10 10:17:39;;;;;;;;;;;;;;;11.70;54.41;99133.97;5274177;26;19931;-69
2024/04/10 10:20:41;;;;;;;;;;;;;;;11.93;54.08;99144.09;5284637;26;19931;-65
2024/04/10 10:23:28;;;;;;;;;;;;;;;12.13;53.15;99142.22;5287257;26;19934;-69
2024/04/10 10:26:18;;;;;;;;;;;;;;;12.41;51.97;99146.78;5290459;26;19973;-68
2024/04/10 10:29:10;;;;;;;;;;;;;;;12.49;51.59;99146.13;5297730;26;20365;-65
2024/04/10 10:32:05;;;;;;;;;;;;;;;12.39;50.84;99154.41;5293548;26;20447;-67
2024/04/10 10:34:52;;;;;;;;;;;;;;;12.35;51.91;99161.56;5304454;26;19937;-64
2024/04/10 10:37:42;;;;;;;;;;;;;;;12.32;51.41;99156.72;5297628;26;19958;-68
2024/04/10 10:40:31;;;;;;;;;;;;;;;12.30;52.35;99156.16;5298418;26;19931;-68
2024/04/10 10:43:21;;;;;;;;;;;;;;;12.09;52.23;99152.06;5295704;26;19937;-69
2024/04/10 10:46:11;;;;;;;;;;;;;;;12.14;51.79;99152.81;5301440;26;20000;-64
2024/04/10 10:49:01;;;;;;;;;;;;;;;12.31;51.65;99152.38;5302370;26;20361;-68
2024/04/10 10:51:48;;;;;;;;;;;;;;;12.44;51.83;99148.09;5298896;26;20331;-68
2024/04/10 10:54:38;;;;;;;;;;;;;;;11.97;51.83;99150.56;5297977;26;19990;-68
2024/04/10 10:57:25;;;;;;;;;;;;;;;12.10;52.59;99149.09;5286710;26;19997;-68
2024/04/10 11:00:16;;;;;;;;;;;;;;;12.30;51.58;99157.00;5307000;26;19941;-68
2024/04/10 11:03:12;;;;;;;;;;;;;;;12.41;50.71;99157.69;5304011;26;20348;-68
2024/04/10 11:06:07;;;;;;;;;;;;;;;12.45;51.17;99166.88;5282587;26;19938;-68
2024/04/10 11:09:06;;;;;;;;;;;;;;;12.49;51.41;99151.56;5305490;26;20054;-69
2024/04/10 11:11:56;;;;;;;;;;;;;;;12.61;50.41;99158.50;5301876;26;19931;-67
2024/04/10 11:14:46;;;;;;;;;;;;;;;12.75;50.08;99148.50;5303995;26;19931;-68
2024/04/10 11:17:33;;;;;;;;;;;;;;;12.64;47.90;99147.81;5293683;26;19931;-65
2024/04/10 11:20:26;;;;;;;;;;;;;;;12.66;47.82;99161.16;5302005;26;19945;-68
2024/04/10 11:23:16;;;;;;;;;;;;;;;12.72;48.39;99162.69;5294275;26;19935;-69
2024/04/10 11:26:04;;;;;;;;;;;;;;;12.81;47.77;99163.66;5290631;26;19930;-69
2024/04/10 11:28:54;;;;;;;;;;;;;;;13.20;47.03;99165.25;5298319;26;19931;-68
2024/04/10 11:31:42;;;;;;;;;;;;;;;12.58;47.43;99174.34;5287768;26;19930;-69
2024/04/10 11:34:32;;;;;;;;;;;;;;;12.53;47.81;99168.16;5305623;26;20427;-68
2024/04/10 11:37:21;;;;;;;;;;;;;;;12.45;48.28;99166.06;5287250;26;19941;-68
2024/04/10 11:40:14;;;;;;;;;;;;;;;12.84;46.61;99168.53;5301170;26;19943;-69
2024/04/10 11:43:01;;;;;;;;;;;;;;;13.19;45.94;99167.16;5283674;26;20388;-68
2024/04/10 11:45:51;;;;;;;;;;;;;;;13.43;46.42;99169.81;5304710;26;19931;-68
2024/04/10 11:48:38;;;;;;;;;;;;;;;13.65;46.39;99157.41;5305713;26;19945;-66
2024/04/10 11:51:29;;;;;;;;;;;;;;;13.61;44.32;99157.19;5303757;26;20001;-68
